Time;durP1;ratioP1;P1;durP2;ratioP2;P2;SDS_P1;SDS_P2;PMS_P1;PMS_P2;Temp;Humidity;BMP_temperature;BMP_pressure;BME280_temperature;BME280_humidity;BME280_pressure;Samples;Min_cycle;Max_cycle;Signal;HPM_P1;HPM_P2
2023/10/06 00:01:01;;;;;;;6.03;3.00;;;;;;;10.66;87.62;98768.34;6184569;28;20286;-57
2023/10/06 00:04:07;;;;;;;5.53;3.10;;;;;;;10.63;87.81;98765.28;6188841;28;20225;-55
2023/10/06 00:07:09;;;;;;;4.50;2.90;;;;;;;10.62;88.28;98768.97;6195892;28;20228;-58
2023/10/06 00:10:18;;;;;;;4.60;3.20;;;;;;;10.58;88.07;98764.06;6202214;28;20734;-57
2023/10/06 00:13:51;;;;;;;6.60;3.00;;;;;;;10.53;88.02;98766.56;6187142;28;20768;-61
2023/10/06 00:16:46;;;;;;;4.53;2.90;;;;;;;10.47;87.82;98770.09;6188703;28;20224;-60
2023/10/06 00:19:55;;;;;;;4.77;2.77;;;;;;;10.47;88.40;98769.28;6186237;28;20223;-55
2023/10/06 00:23:04;;;;;;;8.13;3.00;;;;;;;10.48;89.32;98778.91;6190559;28;20693;-58
2023/10/06 00:26:10;;;;;;;8.53;3.63;;;;;;;10.63;86.31;98770.59;6188965;28;20233;-52
2023/10/06 00:29:21;;;;;;;5.63;3.43;;;;;;;10.59;85.95;98755.06;6197308;28;20590;-59
2023/10/06 00:32:26;;;;;;;5.27;3.17;;;;;;;10.73;85.72;98763.75;6203725;28;20221;-55
2023/10/06 00:35:30;;;;;;;6.60;3.10;;;;;;;10.67;85.44;98751.31;6189303;28;20231;-59
2023/10/06 00:38:36;;;;;;;7.23;3.93;;;;;;;10.77;85.25;98767.63;6173270;28;20776;-58
2023/10/06 00:41:43;;;;;;;10.57;3.40;;;;;;;10.80;84.58;98763.72;6187039;28;20768;-56
2023/10/06 00:44:47;;;;;;;6.90;3.13;;;;;;;10.84;83.74;98760.41;6186762;28;20334;-56
2023/10/06 00:47:52;;;;;;;6.80;3.47;;;;;;;10.95;82.04;98769.56;6185197;28;20322;-58
2023/10/06 00:50:57;;;;;;;6.70;3.57;;;;;;;11.11;81.14;98770.88;6192009;28;20323;-59
2023/10/06 00:54:00;;;;;;;7.23;3.30;;;;;;;11.19;79.86;98756.44;6194340;28;20221;-56
2023/10/06 00:57:08;;;;;;;4.57;2.80;;;;;;;11.26;79.56;98760.66;6201408;28;20225;-56
2023/10/06 01:00:21;;;;;;;5.90;3.43;;;;;;;11.27;80.42;98764.97;6179274;28;20649;-58
2023/10/06 01:03:25;;;;;;;9.37;3.57;;;;;;;11.26;79.98;98762.53;6175007;28;20702;-55
2023/10/06 01:06:35;;;;;;;6.77;3.47;;;;;;;11.24;80.11;98760.09;6175951;28;20229;-59
2023/10/06 01:09:38;;;;;;;7.87;3.80;;;;;;;11.22;80.26;98762.13;6184530;28;20229;-56
2023/10/06 01:12:40;;;;;;;6.23;3.17;;;;;;;11.15;80.57;98755.25;6184165;28;20613;-59
2023/10/06 01:15:49;;;;;;;7.30;3.17;;;;;;;11.07;81.41;98761.66;6189490;28;20224;-59
2023/10/06 01:19:00;;;;;;;7.57;3.40;;;;;;;11.07;81.15;98759.81;6199382;28;20227;-58
2023/10/06 01:22:19;;;;;;;5.57;3.13;;;;;;;11.18;80.01;98760.13;6173209;28;20236;-59
2023/10/06 01:25:24;;;;;;;6.70;3.60;;;;;;;11.19;81.04;98751.94;6182016;28;20237;-55
2023/10/06 01:28:26;;;;;;;6.70;3.17;;;;;;;11.23;80.19;98753.13;6170783;28;20732;-59
2023/10/06 01:31:29;;;;;;;9.07;3.57;;;;;;;11.25;80.01;98750.22;6188944;28;20236;-58
2023/10/06 01:34:38;;;;;;;7.80;3.50;;;;;;;11.29;80.12;98762.09;6185548;28;20241;-59
2023/10/06 01:37:42;;;;;;;7.00;3.53;;;;;;;11.33;80.55;98769.44;6186812;28;20233;-61
2023/10/06 01:40:44;;;;;;;7.00;3.30;;;;;;;11.33;79.74;98766.78;6197236;28;20252;-59
2023/10/06 01:43:46;;;;;;;7.30;3.20;;;;;;;11.34;79.59;98760.41;6190376;28;20659;-57
2023/10/06 01:46:54;;;;;;;6.17;2.97;;;;;;;11.39;79.47;98764.25;6186560;28;20269;-59
2023/10/06 01:49:57;;;;;;;6.80;4.03;;;;;;;11.47;78.59;98763.97;6177099;28;20239;-58
2023/10/06 01:53:05;;;;;;;10.23;3.63;;;;;;;11.47;79.59;98769.28;6217876;28;20699;-59
2023/10/06 01:56:07;;;;;;;6.20;3.30;;;;;;;11.46;79.18;98765.81;6180648;28;20228;-59
2023/10/06 01:59:12;;;;;;;13.17;3.60;;;;;;;11.52;78.57;98764.13;6188175;28;20240;-58
2023/10/06 02:02:14;;;;;;;6.70;3.37;;;;;;;11.56;78.40;98765.31;6175025;28;20229;-58
2023/10/06 02:05:16;;;;;;;6.67;2.80;;;;;;;11.42;78.72;98740.59;6163881;28;20236;-58
2023/10/06 02:08:23;;;;;;;7.87;3.30;;;;;;;11.49;78.72;98765.38;6157995;28;20233;-54
2023/10/06 02:11:30;;;;;;;7.57;3.50;;;;;;;11.48;79.67;98768.28;6155547;28;20669;-56
2023/10/06 02:14:33;;;;;;;7.13;3.30;;;;;;;11.36;80.21;98774.31;6163732;28;20238;-57
2023/10/06 02:17:36;;;;;;;5.87;3.10;;;;;;;11.27;80.59;98775.63;6160086;28;20247;-58
2023/10/06 02:20:45;;;;;;;8.47;3.53;;;;;;;11.25;81.19;98771.56;6160554;28;20373;-58
2023/10/06 02:23:49;;;;;;;5.27;2.80;;;;;;;11.12;81.35;98767.16;6166452;28;20238;-59
2023/10/06 02:27:01;;;;;;;5.50;2.53;;;;;;;11.11;82.51;98765.53;6168831;28;20222;-57
2023/10/06 02:30:10;;;;;;;6.67;3.30;;;;;;;11.07;83.25;98780.31;6156382;28;20230;-59
2023/10/06 02:33:12;;;;;;;5.83;2.63;;;;;;;11.00;83.93;98779.56;6161537;28;20290;-59
2023/10/06 02:36:23;;;;;;;5.07;2.90;;;;;;;10.92;84.08;98774.50;6155976;28;20218;-58
2023/10/06 02:39:28;;;;;;;5.80;3.40;;;;;;;10.82;85.23;98786.47;6162673;28;20234;-59
2023/10/06 02:42:33;;;;;;;8.40;3.80;;;;;;;10.76;84.93;98794.50;6168127;28;20233;-59
2023/10/06 02:45:40;;;;;;;8.30;3.27;;;;;;;10.67;85.41;98785.94;6172175;28;20228;-54
2023/10/06 02:48:48;;;;;;;7.53;3.87;;;;;;;10.65;85.39;98787.22;6166311;28;20323;-59
2023/10/06 02:51:52;;;;;;;8.93;3.90;;;;;;;10.57;86.07;98790.94;6168429;28;20236;-59
2023/10/06 02:58:05;;;;;;;6.10;3.63;;;;;;;10.52;87.05;98798.75;6165095;28;20327;-54
2023/10/06 03:01:11;;;;;;;7.20;3.47;;;;;;;10.60;86.38;98795.84;6166686;28;20237;-59
2023/10/06 03:04:17;;;;;;;7.87;4.03;;;;;;;10.56;86.79;98805.28;6169526;28;20240;-58
2023/10/06 03:07:20;;;;;;;6.47;3.67;;;;;;;10.57;86.87;98802.41;6156292;28;20320;-59
2023/10/06 03:10:26;;;;;;;7.00;2.97;;;;;;;10.54;87.35;98802.00;6173940;28;20248;-55
2023/10/06 03:13:33;;;;;;;7.83;3.63;;;;;;;10.47;88.46;98809.22;6173614;28;20865;-58
2023/10/06 03:16:42;;;;;;;7.87;3.43;;;;;;;10.30;88.33;98792.94;6168039;28;20372;-58
2023/10/06 03:19:56;;;;;;;6.50;3.27;;;;;;;10.24;89.18;98791.09;6162975;28;20284;-59
2023/10/06 03:23:03;;;;;;;9.60;3.83;;;;;;;10.32;89.24;98804.19;6165353;28;20713;-59
2023/10/06 03:26:14;;;;;;;8.67;3.30;;;;;;;10.35;89.18;98810.94;6168803;28;20320;-58
2023/10/06 03:29:28;;;;;;;5.80;3.13;;;;;;;10.38;88.72;98806.00;6168789;28;20582;-56
2023/10/06 03:32:39;;;;;;;6.37;3.87;;;;;;;10.47;88.16;98811.91;6169846;28;20225;-59
2023/10/06 03:35:46;;;;;;;5.77;3.30;;;;;;;10.45;88.40;98805.97;6172743;28;20226;-59
2023/10/06 03:39:05;;;;;;;8.77;3.40;;;;;;;10.40;89.40;98809.28;6168196;28;20597;-58
2023/10/06 03:42:12;;;;;;;8.00;3.43;;;;;;;10.36;89.23;98821.38;6160989;28;20277;-58
2023/10/06 03:45:22;;;;;;;6.27;2.80;;;;;;;10.33;89.16;98814.63;6160935;28;20239;-58
2023/10/06 03:48:29;;;;;;;9.63;3.50;;;;;;;10.16;89.67;98802.81;6165388;28;20909;-56
2023/10/06 03:51:38;;;;;;;6.27;3.10;;;;;;;10.18;89.76;98824.69;6169226;28;20244;-58
2023/10/06 03:54:41;;;;;;;5.07;2.90;;;;;;;10.11;90.13;98820.44;6150053;28;20875;-59
2023/10/06 03:57:45;;;;;;;6.20;2.73;;;;;;;10.03;90.95;98822.28;6172423;28;20229;-59
2023/10/06 04:00:49;;;;;;;6.93;2.60;;;;;;;10.03;90.70;98826.81;6157586;28;20248;-58
2023/10/06 04:03:58;;;;;;;5.60;2.70;;;;;;;9.98;91.04;98832.75;6160430;28;20239;-59
2023/10/06 04:07:01;;;;;;;5.77;2.80;;;;;;;9.93;91.26;98839.72;6164264;28;20251;-58
2023/10/06 04:10:10;;;;;;;5.70;2.90;;;;;;;9.87;91.81;98836.06;6158853;28;20239;-59
2023/10/06 04:13:18;;;;;;;8.43;3.43;;;;;;;9.81;91.84;98840.38;6166826;28;20320;-57
2023/10/06 04:16:23;;;;;;;5.67;3.13;;;;;;;9.80;92.42;98835.25;6166629;28;20298;-59
2023/10/06 04:19:25;;;;;;;8.27;3.10;;;;;;;9.76;92.99;98842.84;6164477;28;20709;-58
2023/10/06 04:22:27;;;;;;;4.37;2.60;;;;;;;9.74;93.01;98834.25;6171057;28;20492;-59
2023/10/06 04:25:29;;;;;;;6.77;2.90;;;;;;;9.74;92.88;98841.41;6157062;28;20627;-60
2023/10/06 04:28:31;;;;;;;5.83;2.90;;;;;;;9.66;92.83;98831.00;6161016;28;20238;-56
2023/10/06 04:31:33;;;;;;;4.83;2.90;;;;;;;9.68;92.70;98842.25;6165463;28;20243;-59
2023/10/06 04:34:35;;;;;;;6.23;3.13;;;;;;;9.62;92.89;98835.09;6160938;28;20235;-58
2023/10/06 04:37:37;;;;;;;6.20;2.77;;;;;;;9.52;93.27;98840.84;6171340;28;20371;-59
2023/10/06 04:40:43;;;;;;;5.23;3.03;;;;;;;9.43;94.00;98844.72;6171994;28;20244;-58
2023/10/06 04:43:45;;;;;;;5.10;2.83;;;;;;;9.39;94.19;98840.84;6167820;28;20594;-56
2023/10/06 04:46:47;;;;;;;7.60;3.00;;;;;;;9.33;94.17;98836.34;6165834;28;20232;-57
2023/10/06 04:49:52;;;;;;;7.10;3.40;;;;;;;9.23;94.38;98837.56;6156830;28;20240;-59
2023/10/06 04:52:55;;;;;;;9.60;3.00;;;;;;;9.14;94.46;98844.09;6161123;28;20227;-59
2023/10/06 04:55:57;;;;;;;4.70;2.80;;;;;;;9.11;95.04;98851.66;6160116;28;20232;-59
2023/10/06 04:59:00;;;;;;;5.10;2.53;;;;;;;9.08;95.12;98842.28;6157830;28;20313;-58
2023/10/06 05:02:02;;;;;;;6.77;3.00;;;;;;;8.97;94.88;98835.72;6155385;28;20228;-59
2023/10/06 05:05:05;;;;;;;6.23;2.47;;;;;;;9.03;95.21;98853.50;6168695;28;20953;-59
2023/10/06 05:08:14;;;;;;;4.37;2.27;;;;;;;9.01;95.49;98852.91;6177689;28;20734;-54
2023/10/06 05:11:19;;;;;;;4.23;2.77;;;;;;;8.94;95.40;98864.53;6146751;28;20700;-58
2023/10/06 05:14:23;;;;;;;4.17;2.60;;;;;;;8.76;95.55;98843.84;6161201;28;20310;-57
2023/10/06 05:17:25;;;;;;;4.97;2.57;;;;;;;8.72;95.74;98861.22;6166163;28;20234;-60
2023/10/06 05:20:32;;;;;;;8.43;2.97;;;;;;;8.64;96.29;98861.41;6167587;28;20602;-58
2023/10/06 05:23:37;;;;;;;4.87;2.83;;;;;;;8.60;96.37;98865.47;6187886;28;20313;-59
2023/10/06 05:26:43;;;;;;;4.77;2.63;;;;;;;8.57;96.56;98868.50;6165912;28;20706;-59
2023/10/06 05:29:46;;;;;;;4.07;2.33;;;;;;;8.48;96.55;98876.69;6169780;28;20256;-57
2023/10/06 05:32:48;;;;;;;6.27;4.40;;;;;;;8.38;97.81;98878.88;6159575;28;20233;-58
2023/10/06 05:35:51;;;;;;;9.53;5.67;;;;;;;8.24;98.12;98871.84;6159847;28;20228;-56
2023/10/06 05:38:55;;;;;;;6.60;4.53;;;;;;;8.31;97.98;98883.31;6154982;28;20226;-59
2023/10/06 05:41:57;;;;;;;5.77;2.90;;;;;;;8.23;98.48;98894.09;6163985;28;20237;-58
2023/10/06 05:45:01;;;;;;;5.57;3.07;;;;;;;8.14;99.73;98885.47;6165901;28;20248;-55
2023/10/06 05:48:06;;;;;;;10.10;3.30;;;;;;;8.09;100.00;98884.44;6168256;28;20630;-58
2023/10/06 05:51:09;;;;;;;6.67;2.77;;;;;;;8.07;99.78;98889.09;6170580;28;20259;-58
2023/10/06 05:54:21;;;;;;;14.27;3.47;;;;;;;8.09;100.00;98897.69;6173291;28;20205;-62
2023/10/06 05:57:23;;;;;;;7.40;3.07;;;;;;;8.09;100.00;98892.41;6157254;28;20239;-58
2023/10/06 06:00:29;;;;;;;6.60;2.97;;;;;;;8.04;100.00;98890.31;6160099;28;20245;-57
2023/10/06 06:03:32;;;;;;;9.63;3.10;;;;;;;8.06;100.00;98898.06;6146408;28;20751;-61
2023/10/06 06:06:36;;;;;;;9.63;3.27;;;;;;;8.02;100.00;98902.94;6198305;28;20237;-58
2023/10/06 06:09:38;;;;;;;6.90;3.20;;;;;;;8.01;100.00;98906.63;6168105;28;20245;-58
2023/10/06 06:12:42;;;;;;;11.10;3.20;;;;;;;7.98;100.00;98902.53;6170915;28;20736;-58
2023/10/06 06:15:44;;;;;;;6.77;2.67;;;;;;;7.93;100.00;98904.13;6175804;28;20241;-59
2023/10/06 06:18:47;;;;;;;4.63;2.50;;;;;;;7.98;100.00;98907.03;6160942;28;20241;-58
2023/10/06 06:21:50;;;;;;;6.23;2.80;;;;;;;8.00;100.00;98897.03;6165103;28;20673;-59
2023/10/06 06:24:52;;;;;;;6.03;2.97;;;;;;;8.01;100.00;98902.13;6163955;28;20266;-58
2023/10/06 06:27:59;;;;;;;6.83;3.10;;;;;;;7.98;100.00;98896.41;6170495;28;20221;-59
2023/10/06 06:31:04;;;;;;;8.90;3.43;;;;;;;8.10;100.00;98912.59;6164973;28;20780;-57
2023/10/06 06:34:07;;;;;;;5.63;2.90;;;;;;;8.15;100.00;98904.88;6174903;28;20237;-56
2023/10/06 06:37:12;;;;;;;4.10;2.67;;;;;;;8.24;100.00;98914.31;6170547;28;20241;-56
2023/10/06 06:40:15;;;;;;;4.97;2.70;;;;;;;8.34;100.00;98919.28;6169732;28;20295;-55
2023/10/06 06:43:19;;;;;;;6.57;3.00;;;;;;;8.44;100.00;98922.41;6144545;28;20234;-55
2023/10/06 06:46:22;;;;;;;6.70;2.87;;;;;;;8.54;100.00;98928.19;6155448;28;20249;-56
2023/10/06 06:49:24;;;;;;;7.17;3.13;;;;;;;8.63;100.00;98928.84;6167008;28;20709;-54
2023/10/06 06:52:28;;;;;;;5.57;2.57;;;;;;;8.73;100.00;98923.97;6169270;28;20236;-57
2023/10/06 06:55:30;;;;;;;3.63;2.37;;;;;;;8.83;100.00;98923.59;6170233;28;20231;-57
2023/10/06 06:58:33;;;;;;;5.07;2.70;;;;;;;8.93;100.00;98926.69;6169439;28;20244;-58
2023/10/06 07:01:38;;;;;;;8.40;3.00;;;;;;;9.11;100.00;98926.91;6177781;28;20244;-59
2023/10/06 07:04:41;;;;;;;5.70;3.10;;;;;;;9.56;100.00;98927.19;6167089;28;20290;-59
2023/10/06 07:07:44;;;;;;;5.37;2.70;;;;;;;9.99;99.33;98935.53;6169775;28;20247;-59
2023/10/06 07:10:52;;;;;;;7.43;3.03;;;;;;;10.25;97.62;98931.25;6159914;28;20238;-59
2023/10/06 07:13:55;;;;;;;6.30;2.57;;;;;;;10.49;96.68;98943.03;6167076;28;20232;-56
2023/10/06 07:17:00;;;;;;;7.40;2.60;;;;;;;10.85;90.67;98939.84;6169690;28;20232;-58
2023/10/06 07:20:03;;;;;;;5.90;2.50;;;;;;;11.32;84.54;98911.03;6175914;28;20332;-58
2023/10/06 07:23:06;;;;;;;4.83;2.20;;;;;;;11.64;83.84;98927.84;6176469;28;20575;-59
2023/10/06 07:26:12;;;;;;;6.27;2.77;;;;;;;11.79;82.58;98933.66;6163421;28;20336;-56
2023/10/06 07:29:15;;;;;;;5.93;2.47;;;;;;;11.94;80.86;98935.22;6161827;28;20504;-58
2023/10/06 07:32:18;;;;;;;7.60;2.50;;;;;;;12.05;78.69;98923.81;6154344;28;20606;-59
2023/10/06 07:35:27;;;;;;;5.30;2.33;;;;;;;12.41;75.82;98936.38;6166736;28;20246;-54
2023/10/06 07:38:31;;;;;;;5.60;2.40;;;;;;;12.42;76.10;98932.69;6153647;28;20725;-59
2023/10/06 07:41:34;;;;;;;3.57;2.43;;;;;;;12.57;74.65;98922.41;6166168;28;20797;-56
2023/10/06 07:44:36;;;;;;;5.33;2.50;;;;;;;12.67;74.15;98932.59;6175927;28;20698;-58
2023/10/06 07:47:40;;;;;;;6.00;2.60;;;;;;;12.87;72.67;98935.81;6176487;28;20310;-58
2023/10/06 07:50:42;;;;;;;7.27;2.77;;;;;;;12.94;73.05;98937.59;6150992;28;20862;-60
2023/10/06 07:53:44;;;;;;;5.13;2.50;;;;;;;13.05;72.51;98928.78;6162004;28;20231;-54
2023/10/06 07:56:47;;;;;;;5.80;2.80;;;;;;;13.18;71.67;98936.63;6162014;28;20271;-58
2023/10/06 07:59:49;;;;;;;6.20;2.50;;;;;;;13.32;70.56;98934.63;6162428;28;20241;-59
2023/10/06 08:02:51;;;;;;;6.10;2.60;;;;;;;13.53;69.12;98931.41;6166497;28;20748;-59
2023/10/06 08:05:55;;;;;;;5.83;2.70;;;;;;;13.57;68.66;98945.16;6166657;28;20576;-59
2023/10/06 08:08:58;;;;;;;5.97;2.50;;;;;;;13.66;69.05;98947.28;6174040;28;20711;-58
2023/10/06 08:12:00;;;;;;;5.63;2.90;;;;;;;13.71;68.78;98943.09;6169940;28;20238;-56
2023/10/06 08:15:06;;;;;;;5.50;2.70;;;;;;;13.70;69.32;98936.13;6152151;28;20694;-58
2023/10/06 08:18:08;;;;;;;6.77;2.97;;;;;;;13.72;68.53;98937.50;6160787;28;20590;-56
2023/10/06 08:21:11;;;;;;;6.63;2.90;;;;;;;13.83;68.21;98944.72;6165925;28;20225;-57
2023/10/06 08:24:13;;;;;;;6.73;2.93;;;;;;;13.99;66.95;98935.22;6168047;28;20701;-57
2023/10/06 08:27:21;;;;;;;5.90;3.10;;;;;;;14.06;67.21;98937.75;6168389;28;20221;-59
2023/10/06 08:30:23;;;;;;;8.23;3.20;;;;;;;14.15;66.93;98931.81;6174968;28;20246;-58
2023/10/06 08:33:27;;;;;;;6.93;2.90;;;;;;;14.30;65.34;98936.69;6176663;28;20255;-57
2023/10/06 08:36:30;;;;;;;9.90;3.13;;;;;;;14.41;65.47;98946.59;6159855;28;20313;-59
2023/10/06 08:39:38;;;;;;;5.30;2.87;;;;;;;14.43;64.87;98931.09;6151803;28;20241;-58
2023/10/06 08:42:41;;;;;;;6.67;3.00;;;;;;;14.54;64.83;98937.50;6161610;28;20232;-58
2023/10/06 08:45:44;;;;;;;7.57;3.30;;;;;;;14.74;64.30;98936.28;6152151;28;20713;-58
2023/10/06 08:48:47;;;;;;;7.57;3.47;;;;;;;14.95;63.16;98941.00;6149285;28;20234;-55
2023/10/06 08:51:50;;;;;;;6.53;3.00;;;;;;;14.75;63.82;98919.16;6169242;28;20317;-58
2023/10/06 08:54:52;;;;;;;8.50;3.53;;;;;;;14.83;64.26;98918.78;6159561;28;20314;-59
2023/10/06 08:57:55;;;;;;;4.47;2.40;;;;;;;14.92;64.01;98930.72;6163858;28;20225;-58
2023/10/06 09:00:59;;;;;;;6.33;2.90;;;;;;;15.02;64.41;98930.13;6154395;28;20265;-58
2023/10/06 09:04:03;;;;;;;5.27;2.63;;;;;;;15.17;63.98;98928.56;6163347;28;20237;-59
2023/10/06 09:07:12;;;;;;;6.63;2.87;;;;;;;15.14;64.73;98898.69;6160442;28;20636;-59
2023/10/06 09:10:17;;;;;;;7.90;3.00;;;;;;;15.30;63.72;98915.88;6164876;28;20608;-57
2023/10/06 09:13:21;;;;;;;7.67;3.60;;;;;;;15.44;61.72;98909.94;6173307;28;20252;-56
2023/10/06 09:16:24;;;;;;;4.60;2.80;;;;;;;15.44;62.47;98906.44;6170031;28;20270;-59
2023/10/06 09:19:26;;;;;;;6.23;3.67;;;;;;;15.53;61.57;98913.06;6179400;28;20244;-56
2023/10/06 09:22:43;;;;;;;8.57;4.10;;;;;;;15.56;61.35;98904.50;6150136;28;20246;-55
2023/10/06 09:25:48;;;;;;;6.03;3.53;;;;;;;15.58;62.65;98902.38;6160376;28;20249;-59
2023/10/06 09:28:52;;;;;;;7.03;3.47;;;;;;;15.60;63.45;98894.91;6159495;28;20289;-59
2023/10/06 09:31:57;;;;;;;7.23;3.40;;;;;;;15.68;61.85;98899.91;6160630;28;20237;-58
2023/10/06 09:35:21;;;;;;;6.97;3.33;;;;;;;15.78;60.62;98891.19;6167615;28;20230;-58
2023/10/06 09:38:26;;;;;;;7.93;3.57;;;;;;;15.85;60.87;98888.31;6158816;28;20233;-59
2023/10/06 09:41:30;;;;;;;7.47;4.10;;;;;;;15.91;58.82;98890.00;6171500;28;20797;-59
2023/10/06 09:44:35;;;;;;;8.23;4.33;;;;;;;15.91;59.46;98879.25;6157198;28;20238;-58
2023/10/06 09:47:51;;;;;;;8.07;4.20;;;;;;;16.23;57.48;98874.88;6155697;28;20974;-58
2023/10/06 09:50:54;;;;;;;6.33;3.50;;;;;;;15.99;58.22;98876.16;6161444;28;20405;-59
2023/10/06 09:53:58;;;;;;;7.93;3.83;;;;;;;15.86;58.54;98871.97;6165768;28;20248;-58
2023/10/06 09:57:00;;;;;;;7.03;3.67;;;;;;;15.90;60.43;98872.25;6167553;28;20599;-59
2023/10/06 10:00:05;;;;;;;8.90;3.73;;;;;;;15.97;59.84;98871.03;6166284;28;20233;-53
2023/10/06 10:03:15;;;;;;;12.37;4.70;;;;;;;16.08;58.33;98861.25;6173915;28;20213;-58
2023/10/06 10:06:21;;;;;;;7.20;3.70;;;;;;;16.19;57.04;98865.69;6164913;28;20226;-55
2023/10/06 10:09:24;;;;;;;9.43;3.87;;;;;;;16.33;58.16;98859.94;6150066;28;20233;-58
2023/10/06 10:12:45;;;;;;;5.53;3.50;;;;;;;16.52;57.21;98855.88;6157152;28;20288;-57
2023/10/06 10:16:26;;;;;;;8.43;4.67;;;;;;;16.53;56.49;98852.13;6159439;28;20340;-58
2023/10/06 10:19:30;;;;;;;9.37;3.83;;;;;;;16.49;56.24;98837.53;6163791;28;20233;-57
2023/10/06 10:22:32;;;;;;;7.10;3.97;;;;;;;16.48;56.17;98827.84;6169202;28;20319;-59
2023/10/06 10:25:36;;;;;;;7.87;4.20;;;;;;;16.54;56.03;98834.09;6183743;28;20221;-58
2023/10/06 10:28:38;;;;;;;7.53;3.63;;;;;;;16.75;54.99;98838.69;6170672;28;20234;-57
2023/10/06 10:31:42;;;;;;;7.50;3.77;;;;;;;16.82;54.41;98830.41;6157520;28;20279;-59
2023/10/06 10:35:16;;;;;;;10.17;4.03;;;;;;;16.97;49.90;98819.78;6160073;28;20256;-58
2023/10/06 10:38:19;;;;;;;7.00;3.57;;;;;;;17.05;51.77;98823.91;6159282;28;20238;-58
2023/10/06 10:41:23;;;;;;;7.70;3.87;;;;;;;17.13;52.50;98820.72;6168116;28;20252;-59
2023/10/06 10:44:25;;;;;;;8.03;4.10;;;;;;;17.23;49.75;98818.91;6165488;28;20606;-57
2023/10/06 10:47:28;;;;;;;10.20;4.23;;;;;;;17.19;50.05;98822.38;6165299;28;20243;-59
2023/10/06 10:50:52;;;;;;;7.13;3.60;;;;;;;17.20;51.84;98814.06;6172835;28;20608;-55
2023/10/06 10:53:54;;;;;;;7.57;3.63;;;;;;;17.29;52.28;98806.34;6146177;28;20810;-58
2023/10/06 10:57:05;;;;;;;6.00;3.37;;;;;;;17.28;51.59;98777.75;6156723;28;20615;-57
2023/10/06 11:03:10;;;;;;;9.20;4.20;;;;;;;17.38;49.69;98799.38;6166004;28;20222;-56
2023/10/06 11:06:15;;;;;;;7.00;3.30;;;;;;;17.47;49.46;98778.97;6171541;28;20724;-58
2023/10/06 11:09:36;;;;;;;9.13;4.37;;;;;;;17.62;48.19;98767.47;6175516;28;20210;-59
2023/10/06 11:12:39;;;;;;;6.90;3.87;;;;;;;17.71;47.37;98763.22;6170639;28;20222;-59
2023/10/06 11:15:42;;;;;;;8.33;4.40;;;;;;;17.76;47.92;98749.78;6160081;28;20248;-58
2023/10/06 11:18:44;;;;;;;8.37;4.17;;;;;;;17.89;47.19;98764.69;6161814;28;20238;-59
2023/10/06 11:21:47;;;;;;;8.27;4.30;;;;;;;18.08;47.20;98767.75;6166193;28;20600;-55
2023/10/06 11:24:50;;;;;;;5.90;3.50;;;;;;;17.97;47.25;98753.38;6166411;28;20237;-57
2023/10/06 11:28:03;;;;;;;6.80;3.90;;;;;;;18.01;47.33;98754.50;6172344;28;20299;-58
2023/10/06 11:31:11;;;;;;;10.60;4.27;;;;;;;17.99;46.83;98731.56;6170419;28;20595;-58
2023/10/06 11:34:15;;;;;;;10.10;3.87;;;;;;;18.11;47.08;98748.31;6176858;28;20237;-58
2023/10/06 11:37:19;;;;;;;7.93;3.87;;;;;;;18.09;46.74;98753.19;6170222;28;20717;-56
2023/10/06 11:40:25;;;;;;;8.53;4.37;;;;;;;18.32;45.35;98749.19;6148771;28;20289;-58
2023/10/06 11:43:30;;;;;;;9.57;4.13;;;;;;;18.23;45.79;98737.31;6159975;28;20233;-59
2023/10/06 11:46:47;;;;;;;7.93;4.00;;;;;;;18.25;46.59;98729.75;6160615;28;20702;-58
2023/10/06 11:50:05;;;;;;;6.27;3.80;;;;;;;18.30;45.59;98721.69;6169255;28;20649;-58
2023/10/06 11:53:19;;;;;;;5.67;3.70;;;;;;;18.20;46.81;98706.28;6163286;28;20225;-57
2023/10/06 11:56:21;;;;;;;8.40;3.90;;;;;;;18.25;46.16;98703.59;6177262;28;20315;-58
2023/10/06 11:59:24;;;;;;;9.53;4.57;;;;;;;18.29;46.39;98701.19;6176534;28;20248;-58
2023/10/06 12:02:27;;;;;;;6.07;3.50;;;;;;;18.44;46.78;98689.59;6158931;28;20761;-57
2023/10/06 12:05:30;;;;;;;7.73;4.00;;;;;;;18.48;46.37;98682.59;6163156;28;20324;-59
2023/10/06 12:08:32;;;;;;;8.53;3.93;;;;;;;18.58;45.38;98692.59;6166010;28;20234;-54
2023/10/06 12:11:34;;;;;;;8.03;4.13;;;;;;;18.51;46.47;98693.66;6167815;28;20229;-57
2023/10/06 12:14:36;;;;;;;6.57;3.77;;;;;;;18.53;45.89;98690.69;6169083;28;20748;-58
2023/10/06 12:17:39;;;;;;;7.03;3.50;;;;;;;18.54;46.11;98695.81;6173428;28;20233;-57
2023/10/06 12:20:41;;;;;;;5.87;3.63;;;;;;;18.54;45.82;98685.03;6167629;28;20225;-58
2023/10/06 12:23:45;;;;;;;7.33;3.50;;;;;;;18.59;45.65;98675.31;6161782;28;20713;-58
2023/10/06 12:26:47;;;;;;;10.67;4.17;;;;;;;18.65;44.50;98683.13;6153909;28;20238;-57
2023/10/06 12:29:50;;;;;;;7.40;3.67;;;;;;;18.66;45.90;98678.53;6163717;28;20700;-58
2023/10/06 12:32:58;;;;;;;7.83;3.60;;;;;;;18.77;46.46;98681.03;6162815;28;20221;-59
2023/10/06 12:36:03;;;;;;;6.50;3.53;;;;;;;18.70;46.90;98702.06;6166144;28;20264;-57
2023/10/06 12:39:06;;;;;;;9.03;3.60;;;;;;;18.81;45.50;98690.19;6169739;28;20684;-59
2023/10/06 12:42:11;;;;;;;8.20;3.83;;;;;;;18.61;46.73;98697.44;6163471;28;20245;-57
2023/10/06 12:45:18;;;;;;;4.10;2.90;;;;;;;18.53;46.49;98688.81;6171820;28;20241;-57
2023/10/06 12:48:20;;;;;;;7.43;3.70;;;;;;;18.50;47.70;98677.72;6153086;28;20312;-59
2023/10/06 12:51:22;;;;;;;6.60;3.50;;;;;;;18.45;48.23;98677.72;6162282;28;20235;-59
2023/10/06 12:54:25;;;;;;;6.10;3.40;;;;;;;18.39;49.20;98666.13;6162240;28;20572;-58
2023/10/06 12:57:28;;;;;;;6.57;3.30;;;;;;;18.43;47.64;98661.81;6158579;28;20263;-59
2023/10/06 13:00:30;;;;;;;8.57;3.20;;;;;;;18.58;47.14;98647.53;6169692;28;20590;-59
2023/10/06 13:03:34;;;;;;;7.67;3.80;;;;;;;18.66;46.11;98646.16;6173469;28;20600;-59
2023/10/06 13:06:37;;;;;;;6.67;3.43;;;;;;;18.46;47.86;98642.38;6177090;28;20229;-59
2023/10/06 13:09:39;;;;;;;6.47;3.43;;;;;;;18.44;48.05;98639.16;6159341;28;20769;-59
2023/10/06 13:12:42;;;;;;;5.17;3.20;;;;;;;18.39;48.39;98633.75;6158820;28;20229;-54
2023/10/06 13:15:45;;;;;;;5.77;3.53;;;;;;;18.42;47.48;98625.13;6157418;28;20290;-59
2023/10/06 13:18:49;;;;;;;6.90;3.17;;;;;;;18.35;48.04;98637.25;6154395;28;20378;-59
2023/10/06 13:21:52;;;;;;;5.43;3.30;;;;;;;18.34;48.21;98630.25;6161804;28;20940;-58
2023/10/06 13:24:57;;;;;;;7.97;3.30;;;;;;;18.22;48.53;98627.78;6157198;28;20229;-57
2023/10/06 13:28:00;;;;;;;6.87;3.50;;;;;;;18.25;47.43;98627.25;6172380;28;20690;-59
2023/10/06 13:31:04;;;;;;;5.57;3.37;;;;;;;18.20;49.10;98630.75;6174164;28;20331;-61
2023/10/06 13:34:07;;;;;;;6.23;3.53;;;;;;;18.15;48.15;98624.56;6148530;28;20287;-57
2023/10/06 13:37:10;;;;;;;6.63;3.60;;;;;;;18.13;48.00;98619.44;6151737;28;20233;-58
2023/10/06 13:40:15;;;;;;;8.80;3.50;;;;;;;18.10;48.68;98628.06;6161709;28;20248;-59
2023/10/06 13:43:19;;;;;;;8.57;3.60;;;;;;;17.97;49.64;98604.28;6161824;28;20730;-59
2023/10/06 13:46:21;;;;;;;4.97;3.07;;;;;;;17.96;49.98;98613.47;6162428;28;20257;-59
2023/10/06 13:49:29;;;;;;;4.83;3.03;;;;;;;17.87;51.18;98612.38;6163383;28;20240;-59
2023/10/06 13:52:33;;;;;;;7.23;3.77;;;;;;;17.83;51.13;98605.88;6164587;28;20237;-56
2023/10/06 13:55:35;;;;;;;6.83;3.23;;;;;;;17.78;51.58;98609.38;6151386;28;20222;-57
2023/10/06 13:58:37;;;;;;;8.23;3.60;;;;;;;17.66;52.89;98593.41;6164574;28;20236;-57
2023/10/06 14:01:39;;;;;;;8.13;3.23;;;;;;;17.61;52.74;98593.41;6178157;28;20264;-58
2023/10/06 14:04:41;;;;;;;8.37;4.10;;;;;;;17.71;50.95;98585.34;6185474;28;20721;-58
2023/10/06 14:07:45;;;;;;;6.63;3.43;;;;;;;17.67;49.91;98578.84;6182839;28;20614;-58
2023/10/06 14:10:51;;;;;;;6.60;3.17;;;;;;;17.82;50.05;98575.41;6168655;28;20722;-59
2023/10/06 14:13:56;;;;;;;6.27;3.30;;;;;;;17.85;50.83;98585.69;6192160;28;20240;-58
2023/10/06 14:17:00;;;;;;;7.33;3.00;;;;;;;17.82;49.25;98593.47;6183883;28;20291;-58
2023/10/06 14:20:10;;;;;;;5.53;3.20;;;;;;;18.03;48.80;98592.47;6169429;28;20231;-57
2023/10/06 14:23:23;;;;;;;6.00;3.20;;;;;;;18.00;50.04;98593.00;6176964;28;20407;-57
2023/10/06 14:26:26;;;;;;;5.67;2.80;;;;;;;17.98;50.37;98590.56;6172948;28;20587;-59
2023/10/06 14:29:30;;;;;;;8.47;3.37;;;;;;;18.01;51.54;98598.09;6182658;28;20602;-55
2023/10/06 14:32:39;;;;;;;6.47;3.30;;;;;;;17.93;49.79;98604.03;6183075;28;20748;-59
2023/10/06 14:35:59;;;;;;;5.73;3.20;;;;;;;18.00;50.41;98607.28;6186993;28;20212;-59
2023/10/06 14:45:59;;;;;;;7.63;3.43;;;;;;;17.83;51.90;98589.72;6179898;28;20233;-59